Time;durP1;ratioP1;P1;durP2;ratioP2;P2;SDS_P1;SDS_P2;PMS_P1;PMS_P2;Temp;Humidity;BMP_temperature;BMP_pressure;BME280_temperature;BME280_humidity;BME280_pressure;Samples;Min_cycle;Max_cycle;Signal;HPM_P1;HPM_P2
2022/06/20 00:01:21;;;;;;;4.57;1.63;;;;;;;;;;5053399;28;20277;-74
2022/06/20 00:03:48;;;;;;;5.28;1.70;;;;;;;;;;5040501;28;20190;-74
2022/06/20 00:06:14;;;;;;;9.77;1.92;;;;;;;;;;5045249;28;20704;-74
2022/06/20 00:08:40;;;;;;;3.28;1.83;;;;;;;;;;5039267;28;20233;-74
2022/06/20 00:11:05;;;;;;;3.90;1.65;;;;;;;;;;5048564;28;20566;-74
2022/06/20 00:13:32;;;;;;;10.48;2.40;;;;;;;;;;5049981;28;20553;-74
2022/06/20 00:16:00;;;;;;;5.30;2.20;;;;;;;;;;5040524;28;20538;-74
2022/06/20 00:18:25;;;;;;;5.57;2.22;;;;;;;;;;5029491;28;20202;-74
2022/06/20 00:20:51;;;;;;;7.00;1.65;;;;;;;;;;5035914;28;20228;-74
2022/06/20 00:23:16;;;;;;;7.55;1.88;;;;;;;;;;5032464;28;20186;-74
2022/06/20 00:25:41;;;;;;;5.32;2.67;;;;;;;;;;5034628;28;20174;-74
2022/06/20 00:28:07;;;;;;;5.73;2.30;;;;;;;;;;5035805;28;20239;-73
2022/06/20 00:30:34;;;;;;;6.20;2.13;;;;;;;;;;5040211;28;20182;-73
2022/06/20 00:32:59;;;;;;;7.23;2.13;;;;;;;;;;5049528;28;20205;-74
2022/06/20 00:35:24;;;;;;;5.43;2.20;;;;;;;;;;5037531;28;20216;-73
2022/06/20 00:37:49;;;;;;;4.97;2.10;;;;;;;;;;5035435;28;20543;-74
2022/06/20 00:40:26;;;;;;;4.03;2.03;;;;;;;;;;5037892;28;20233;-74
2022/06/20 00:42:52;;;;;;;7.50;2.70;;;;;;;;;;5049605;28;20530;-74
2022/06/20 00:45:18;;;;;;;5.70;2.30;;;;;;;;;;5023085;28;20542;-73
2022/06/20 00:47:45;;;;;;;7.83;3.27;;;;;;;;;;5048500;28;20186;-74
2022/06/20 00:50:18;;;;;;;6.90;2.70;;;;;;;;;;5033264;28;20305;-74
2022/06/20 00:52:43;;;;;;;11.30;3.83;;;;;;;;;;5044271;28;20255;-74
2022/06/20 00:55:15;;;;;;;6.00;2.63;;;;;;;;;;5042357;28;20190;-74
2022/06/20 00:57:44;;;;;;;6.00;2.92;;;;;;;;;;5018331;28;20236;-74
2022/06/20 01:00:12;;;;;;;8.73;2.27;;;;;;;;;;5048027;28;20190;-74
2022/06/20 01:02:40;;;;;;;8.73;2.60;;;;;;;;;;5043019;28;20213;-74
2022/06/20 01:05:07;;;;;;;6.53;2.20;;;;;;;;;;5036854;28;20609;-74
2022/06/20 01:07:40;;;;;;;5.80;2.27;;;;;;;;;;5049976;28;20864;-73
2022/06/20 01:10:05;;;;;;;6.07;3.13;;;;;;;;;;5032276;28;20548;-73
2022/06/20 01:12:33;;;;;;;9.70;2.70;;;;;;;;;;5033699;28;20272;-74
2022/06/20 01:14:58;;;;;;;8.43;2.83;;;;;;;;;;5036149;28;20223;-73
2022/06/20 01:17:29;;;;;;;9.43;3.50;;;;;;;;;;5036436;28;20201;-74
2022/06/20 01:20:04;;;;;;;6.90;2.67;;;;;;;;;;5017652;28;20563;-74
2022/06/20 01:22:29;;;;;;;7.27;3.13;;;;;;;;;;5020038;28;20242;-73
2022/06/20 01:25:14;;;;;;;7.70;3.00;;;;;;;;;;5030831;28;20170;-74
2022/06/20 01:27:41;;;;;;;8.00;2.80;;;;;;;;;;5029307;28;20201;-74
2022/06/20 01:30:07;;;;;;;7.07;2.63;;;;;;;;;;5033429;28;20210;-74
2022/06/20 01:32:32;;;;;;;9.43;3.10;;;;;;;;;;5032389;28;20185;-73
2022/06/20 01:34:59;;;;;;;7.47;2.67;;;;;;;;;;5031182;28;20562;-74
2022/06/20 01:37:27;;;;;;;9.90;3.30;;;;;;;;;;5029845;28;20213;-73
2022/06/20 01:39:58;;;;;;;8.30;3.23;;;;;;;;;;5032685;28;20287;-73
2022/06/20 01:42:24;;;;;;;7.13;2.87;;;;;;;;;;5035947;28;20537;-74
2022/06/20 01:44:54;;;;;;;8.07;3.40;;;;;;;;;;5030952;28;20173;-75
2022/06/20 01:47:19;;;;;;;3.95;2.47;;;;;;;;;;5027711;28;20190;-73
2022/06/20 01:49:47;;;;;;;9.33;3.63;;;;;;;;;;5018534;28;20247;-73
2022/06/20 01:52:15;;;;;;;6.40;3.25;;;;;;;;;;5037406;28;20189;-73
2022/06/20 01:54:55;;;;;;;5.13;2.65;;;;;;;;;;5040338;28;20186;-74
2022/06/20 01:57:21;;;;;;;7.13;3.60;;;;;;;;;;5041158;28;20217;-73
2022/06/20 01:59:51;;;;;;;6.78;2.80;;;;;;;;;;5048932;28;20585;-74
2022/06/20 02:02:17;;;;;;;7.35;3.15;;;;;;;;;;5036430;28;20553;-73
2022/06/20 02:04:43;;;;;;;6.82;2.78;;;;;;;;;;5036766;28;20668;-73
2022/06/20 02:07:09;;;;;;;9.10;2.80;;;;;;;;;;5033530;28;20654;-74
2022/06/20 02:09:35;;;;;;;7.82;3.28;;;;;;;;;;5032021;28;20198;-73
2022/06/20 02:12:01;;;;;;;10.13;3.63;;;;;;;;;;5041760;28;20177;-73
2022/06/20 02:14:26;;;;;;;7.70;3.73;;;;;;;;;;5044773;28;20182;-73
2022/06/20 02:16:54;;;;;;;6.97;3.27;;;;;;;;;;5037130;28;20589;-73
2022/06/20 02:19:30;;;;;;;11.47;4.33;;;;;;;;;;5048909;28;20231;-74
2022/06/20 02:21:59;;;;;;;12.13;4.00;;;;;;;;;;5045728;28;20185;-74
2022/06/20 02:24:25;;;;;;;8.63;3.20;;;;;;;;;;5043620;28;20232;-73
2022/06/20 02:26:53;;;;;;;12.85;4.18;;;;;;;;;;5040578;28;20201;-73
2022/06/20 02:29:21;;;;;;;6.50;3.47;;;;;;;;;;5047279;28;20228;-73
2022/06/20 02:31:47;;;;;;;8.00;3.60;;;;;;;;;;5042258;28;20178;-74
2022/06/20 02:34:12;;;;;;;7.63;3.20;;;;;;;;;;5032004;28;20186;-74
2022/06/20 02:36:37;;;;;;;10.05;4.03;;;;;;;;;;5040144;28;20640;-74
2022/06/20 02:39:03;;;;;;;8.17;3.60;;;;;;;;;;5044040;28;20212;-74
2022/06/20 02:41:29;;;;;;;7.80;3.37;;;;;;;;;;5043005;28;20190;-74
2022/06/20 02:44:00;;;;;;;7.47;3.60;;;;;;;;;;5048335;28;20462;-74
2022/06/20 02:46:27;;;;;;;8.07;3.53;;;;;;;;;;5043535;28;20213;-74
2022/06/20 02:48:54;;;;;;;5.73;3.33;;;;;;;;;;5046214;28;20217;-74
2022/06/20 02:51:21;;;;;;;10.70;4.27;;;;;;;;;;5046367;28;20178;-74
2022/06/20 02:53:48;;;;;;;6.20;3.00;;;;;;;;;;5047635;28;20679;-74
2022/06/20 02:56:16;;;;;;;11.23;3.57;;;;;;;;;;5049458;28;20571;-74
2022/06/20 02:58:44;;;;;;;9.80;3.20;;;;;;;;;;5038376;28;20205;-74
2022/06/20 03:01:21;;;;;;;12.47;3.47;;;;;;;;;;5044521;28;20339;-74
2022/06/20 03:03:48;;;;;;;7.23;3.43;;;;;;;;;;5044516;28;20550;-74
2022/06/20 03:06:29;;;;;;;7.93;3.60;;;;;;;;;;5052456;28;20173;-74
2022/06/20 03:08:55;;;;;;;5.23;2.43;;;;;;;;;;5040748;28;20213;-73
2022/06/20 03:11:21;;;;;;;7.03;3.30;;;;;;;;;;5045520;28;20318;-74
2022/06/20 03:13:46;;;;;;;6.00;3.43;;;;;;;;;;5041529;28;20335;-74
2022/06/20 03:16:12;;;;;;;8.57;2.70;;;;;;;;;;5046944;28;20678;-74
2022/06/20 03:18:40;;;;;;;6.90;2.87;;;;;;;;;;5049190;28;20296;-73
2022/06/20 03:21:05;;;;;;;9.87;2.90;;;;;;;;;;5052855;28;20170;-74
2022/06/20 03:23:32;;;;;;;5.97;2.57;;;;;;;;;;5051185;28;20193;-75
2022/06/20 03:25:58;;;;;;;8.47;2.63;;;;;;;;;;5046337;28;20670;-74
2022/06/20 03:28:24;;;;;;;7.93;2.60;;;;;;;;;;5048325;28;20213;-75
2022/06/20 03:30:50;;;;;;;6.53;2.47;;;;;;;;;;5029788;28;20181;-74
2022/06/20 03:33:16;;;;;;;6.40;2.20;;;;;;;;;;5044635;28;20193;-73
2022/06/20 03:35:44;;;;;;;7.03;2.37;;;;;;;;;;5041055;28;20182;-74
2022/06/20 03:38:12;;;;;;;9.20;2.43;;;;;;;;;;5044570;28;20648;-73
2022/06/20 03:40:40;;;;;;;8.63;2.80;;;;;;;;;;5036098;28;20503;-74
2022/06/20 03:43:07;;;;;;;9.70;2.20;;;;;;;;;;5033211;28;20263;-74
2022/06/20 03:45:33;;;;;;;6.67;2.30;;;;;;;;;;5032099;28;20678;-74
2022/06/20 03:48:02;;;;;;;5.60;1.90;;;;;;;;;;5014087;28;20217;-72
2022/06/20 03:50:32;;;;;;;7.47;1.90;;;;;;;;;;5033487;28;20862;-75
2022/06/20 03:53:09;;;;;;;7.20;2.30;;;;;;;;;;5029970;28;20186;-73
2022/06/20 03:55:39;;;;;;;4.13;1.93;;;;;;;;;;5033371;28;20272;-73
2022/06/20 03:58:16;;;;;;;7.63;2.13;;;;;;;;;;5036864;28;20705;-73
2022/06/20 04:00:45;;;;;;;9.30;2.50;;;;;;;;;;5034161;28;20694;-73
2022/06/20 04:03:13;;;;;;;9.50;2.60;;;;;;;;;;5033764;28;20707;-73
2022/06/20 04:05:58;;;;;;;6.73;1.80;;;;;;;;;;5032696;28;20174;-74
2022/06/20 04:10:57;;;;;;;6.60;2.07;;;;;;;;;;5029503;28;20643;-74
2022/06/20 04:11:16;;;;;;;4.57;1.70;;;;;;;;;;5035663;28;20190;-74
2022/06/20 04:13:53;;;;;;;5.00;2.00;;;;;;;;;;5023139;28;20550;-74
2022/06/20 04:16:35;;;;;;;9.80;2.07;;;;;;;;;;5033593;28;20271;-73
2022/06/20 04:19:11;;;;;;;7.72;2.13;;;;;;;;;;5030415;28;20209;-74
2022/06/20 04:21:58;;;;;;;6.68;1.80;;;;;;;;;;5037398;28;20280;-74
2022/06/20 04:24:26;;;;;;;5.93;1.73;;;;;;;;;;5031517;28;20205;-74
2022/06/20 04:27:06;;;;;;;8.25;2.40;;;;;;;;;;5042223;28;20186;-74
2022/06/20 04:29:34;;;;;;;6.25;2.63;;;;;;;;;;5036785;28;20220;-74
2022/06/20 04:31:59;;;;;;;4.07;2.03;;;;;;;;;;5036432;28;20667;-74
2022/06/20 04:34:37;;;;;;;8.40;2.00;;;;;;;;;;5020041;28;20183;-74
2022/06/20 04:37:08;;;;;;;4.53;1.73;;;;;;;;;;5020507;28;20179;-73
2022/06/20 04:39:49;;;;;;;5.93;2.42;;;;;;;;;;5025678;28;20257;-74
2022/06/20 04:42:40;;;;;;;4.75;2.03;;;;;;;;;;5030403;28;20674;-74
2022/06/20 04:45:11;;;;;;;5.85;1.75;;;;;;;;;;5019066;28;20235;-74
2022/06/20 04:47:40;;;;;;;5.22;2.08;;;;;;;;;;5055471;28;20322;-75
2022/06/20 04:50:06;;;;;;;4.90;1.67;;;;;;;;;;5041309;28;20201;-74
2022/06/20 04:52:31;;;;;;;4.93;1.88;;;;;;;;;;5034125;28;20181;-73
2022/06/20 04:54:57;;;;;;;5.70;2.13;;;;;;;;;;5048093;28;20263;-75
2022/06/20 04:57:25;;;;;;;6.50;2.10;;;;;;;;;;5039651;28;20184;-73
2022/06/20 04:59:57;;;;;;;6.97;1.88;;;;;;;;;;5053344;28;20674;-74
2022/06/20 05:02:22;;;;;;;6.78;2.58;;;;;;;;;;5044755;28;20186;-73
2022/06/20 05:04:50;;;;;;;7.85;2.58;;;;;;;;;;5027608;28;20572;-74
2022/06/20 05:07:28;;;;;;;9.15;2.65;;;;;;;;;;5040812;28;20215;-75
2022/06/20 05:10:22;;;;;;;5.15;2.00;;;;;;;;;;5044319;28;20201;-75
2022/06/20 05:12:52;;;;;;;6.05;2.08;;;;;;;;;;5033790;28;20460;-75
2022/06/20 05:15:31;;;;;;;7.97;2.08;;;;;;;;;;5031946;28;20731;-75
2022/06/20 05:17:59;;;;;;;13.35;3.10;;;;;;;;;;5032169;28;20205;-74
2022/06/20 05:20:30;;;;;;;7.55;2.92;;;;;;;;;;5044933;28;20169;-74
2022/06/20 05:23:01;;;;;;;7.00;2.80;;;;;;;;;;5043372;28;20177;-74
2022/06/20 05:25:27;;;;;;;5.07;2.15;;;;;;;;;;5041758;28;20641;-73
2022/06/20 05:27:55;;;;;;;6.10;2.33;;;;;;;;;;5045313;28;20261;-75
2022/06/20 05:30:21;;;;;;;8.40;3.53;;;;;;;;;;5040952;28;20230;-74
2022/06/20 05:32:56;;;;;;;8.88;2.78;;;;;;;;;;5023172;28;20205;-75
2022/06/20 05:35:21;;;;;;;7.13;2.35;;;;;;;;;;5040598;28;20194;-73
2022/06/20 05:37:49;;;;;;;6.95;2.83;;;;;;;;;;5039590;28;20204;-73
2022/06/20 05:40:26;;;;;;;6.43;2.67;;;;;;;;;;5021850;28;20628;-73
2022/06/20 05:42:51;;;;;;;5.72;2.13;;;;;;;;;;5026516;28;20655;-72
2022/06/20 05:45:17;;;;;;;6.38;2.83;;;;;;;;;;5044354;28;20178;-73
2022/06/20 05:47:46;;;;;;;11.00;2.80;;;;;;;;;;5037581;28;20190;-73
2022/06/20 05:50:11;;;;;;;9.40;2.80;;;;;;;;;;5036640;28;20201;-73
2022/06/20 05:52:37;;;;;;;6.10;2.60;;;;;;;;;;5046802;28;20283;-74
2022/06/20 05:55:09;;;;;;;4.45;2.17;;;;;;;;;;5053714;28;20433;-74
2022/06/20 05:57:35;;;;;;;7.43;2.70;;;;;;;;;;5043106;28;20201;-74
2022/06/20 06:00:04;;;;;;;5.38;2.53;;;;;;;;;;5045098;28;20252;-74
2022/06/20 06:02:34;;;;;;;6.82;2.83;;;;;;;;;;5048700;28;20235;-74
2022/06/20 06:05:18;;;;;;;10.90;2.80;;;;;;;;;;5057085;28;20181;-74
2022/06/20 06:08:03;;;;;;;8.98;2.97;;;;;;;;;;5039620;28;20277;-74
2022/06/20 06:10:28;;;;;;;7.82;3.35;;;;;;;;;;5027367;28;20566;-73
2022/06/20 06:13:00;;;;;;;6.60;2.47;;;;;;;;;;5048440;28;20266;-75
2022/06/20 06:15:28;;;;;;;5.45;2.50;;;;;;;;;;5047660;28;20537;-74
2022/06/20 06:17:56;;;;;;;8.82;2.70;;;;;;;;;;5043027;28;20312;-74
2022/06/20 06:20:23;;;;;;;7.05;3.00;;;;;;;;;;5053907;28;20687;-73
2022/06/20 06:22:51;;;;;;;7.55;3.50;;;;;;;;;;5047984;28;20232;-74
2022/06/20 06:25:19;;;;;;;6.95;2.72;;;;;;;;;;5040452;28;20190;-74
2022/06/20 06:27:45;;;;;;;10.30;2.38;;;;;;;;;;5041908;28;20178;-74
2022/06/20 06:30:18;;;;;;;6.65;2.90;;;;;;;;;;5050862;28;20700;-74
2022/06/20 06:32:47;;;;;;;10.73;3.33;;;;;;;;;;5045032;28;20190;-74
2022/06/20 06:35:13;;;;;;;6.85;2.72;;;;;;;;;;5060450;28;20218;-74
2022/06/20 06:37:50;;;;;;;10.27;2.58;;;;;;;;;;5055025;28;20252;-74
2022/06/20 06:40:23;;;;;;;6.53;2.80;;;;;;;;;;5053764;28;21069;-74
2022/06/20 06:42:49;;;;;;;7.95;2.80;;;;;;;;;;5017740;28;20225;-74
2022/06/20 06:45:17;;;;;;;8.00;2.67;;;;;;;;;;5053447;28;20179;-75
2022/06/20 06:47:46;;;;;;;8.57;2.88;;;;;;;;;;5045049;28;20583;-75
2022/06/20 06:50:31;;;;;;;10.05;3.22;;;;;;;;;;5057354;28;20193;-73
2022/06/20 06:53:12;;;;;;;7.63;3.58;;;;;;;;;;5044199;28;20182;-73
2022/06/20 06:55:41;;;;;;;6.88;3.08;;;;;;;;;;5058946;28;20178;-75
2022/06/20 06:58:15;;;;;;;8.65;2.90;;;;;;;;;;5018215;28;20197;-75
2022/06/20 07:00:43;;;;;;;5.68;2.40;;;;;;;;;;5055031;28;20189;-73
2022/06/20 07:03:12;;;;;;;6.93;2.78;;;;;;;;;;5041758;28;20208;-73
2022/06/20 07:05:40;;;;;;;5.35;2.55;;;;;;;;;;5045451;28;20178;-73
2022/06/20 07:08:05;;;;;;;9.38;3.95;;;;;;;;;;5025769;28;20611;-73
2022/06/20 07:10:55;;;;;;;8.35;2.85;;;;;;;;;;5040840;28;20229;-73
2022/06/20 07:13:26;;;;;;;7.93;2.80;;;;;;;;;;5031467;28;20488;-73
2022/06/20 07:15:54;;;;;;;7.80;2.72;;;;;;;;;;5057260;28;20170;-73
2022/06/20 07:18:25;;;;;;;5.80;2.92;;;;;;;;;;5041571;28;20221;-73
2022/06/20 07:20:50;;;;;;;7.88;3.25;;;;;;;;;;5049759;28;20206;-73
2022/06/20 07:23:17;;;;;;;10.13;3.28;;;;;;;;;;5041303;28;20205;-73
2022/06/20 07:25:46;;;;;;;7.53;2.65;;;;;;;;;;5043875;28;20171;-73
2022/06/20 07:28:47;;;;;;;10.77;4.20;;;;;;;;;;5038211;28;20239;-73
2022/06/20 07:31:24;;;;;;;6.97;2.42;;;;;;;;;;4968627;28;20217;-74
2022/06/20 07:33:56;;;;;;;7.35;2.85;;;;;;;;;;5039343;28;20577;-73
2022/06/20 07:36:27;;;;;;;5.18;2.10;;;;;;;;;;5042648;28;20218;-74
2022/06/20 07:38:58;;;;;;;5.05;2.85;;;;;;;;;;5045156;28;20266;-73
2022/06/20 07:41:26;;;;;;;6.78;2.60;;;;;;;;;;5045104;28;20648;-73
2022/06/20 07:44:04;;;;;;;5.50;2.22;;;;;;;;;;5054796;28;20181;-73
2022/06/20 07:46:39;;;;;;;6.68;2.28;;;;;;;;;;5022298;28;20225;-73
2022/06/20 07:49:08;;;;;;;6.72;2.47;;;;;;;;;;5018700;28;20201;-73
2022/06/20 07:51:39;;;;;;;5.40;2.15;;;;;;;;;;5017854;28;20190;-73
2022/06/20 07:54:16;;;;;;;7.25;2.53;;;;;;;;;;5019391;28;20249;-73
2022/06/20 07:57:04;;;;;;;8.93;2.55;;;;;;;;;;5003437;28;20208;-72
2022/06/20 07:59:29;;;;;;;5.30;2.55;;;;;;;;;;5019897;28;20221;-72
2022/06/20 08:01:57;;;;;;;3.75;2.03;;;;;;;;;;5022499;28;20182;-72
2022/06/20 08:04:29;;;;;;;8.80;2.63;;;;;;;;;;5018061;28;20186;-72
2022/06/20 08:06:57;;;;;;;5.47;2.22;;;;;;;;;;5020051;28;20916;-73
2022/06/20 08:09:31;;;;;;;7.05;2.85;;;;;;;;;;5018634;28;20212;-73
2022/06/20 08:12:03;;;;;;;8.68;2.75;;;;;;;;;;5028012;28;20268;-73
2022/06/20 08:14:33;;;;;;;6.57;2.13;;;;;;;;;;5020796;28;20190;-73
2022/06/20 08:17:00;;;;;;;6.68;2.10;;;;;;;;;;5023067;28;20235;-74
2022/06/20 08:19:25;;;;;;;7.78;2.22;;;;;;;;;;5016151;28;20217;-72
2022/06/20 08:21:57;;;;;;;5.47;2.03;;;;;;;;;;5020095;28;20186;-73
2022/06/20 08:24:32;;;;;;;4.47;2.17;;;;;;;;;;5023808;28;20273;-73
2022/06/20 08:27:10;;;;;;;11.25;2.47;;;;;;;;;;5020447;28;20224;-73
2022/06/20 08:29:37;;;;;;;4.95;2.15;;;;;;;;;;5018378;28;20208;-73
2022/06/20 08:32:12;;;;;;;6.53;2.08;;;;;;;;;;5018831;28;20185;-73
2022/06/20 08:34:44;;;;;;;6.28;1.90;;;;;;;;;;5023801;28;20189;-73
2022/06/20 08:37:14;;;;;;;4.18;2.03;;;;;;;;;;5017979;28;20193;-73
2022/06/20 08:39:52;;;;;;;7.60;2.30;;;;;;;;;;5019767;28;20646;-73
2022/06/20 08:42:17;;;;;;;4.18;1.92;;;;;;;;;;5027425;28;20621;-73
2022/06/20 08:44:52;;;;;;;6.70;2.20;;;;;;;;;;5027906;28;20253;-73
2022/06/20 08:47:36;;;;;;;7.50;2.10;;;;;;;;;;5049779;28;20177;-73
2022/06/20 08:50:20;;;;;;;6.95;1.95;;;;;;;;;;5057654;28;20220;-73
2022/06/20 08:52:48;;;;;;;7.60;2.60;;;;;;;;;;5041535;28;20182;-73
2022/06/20 08:55:19;;;;;;;4.93;2.72;;;;;;;;;;5046555;28;20602;-73
2022/06/20 08:57:47;;;;;;;7.20;2.55;;;;;;;;;;5030821;28;20201;-72
2022/06/20 09:00:30;;;;;;;6.78;2.33;;;;;;;;;;5034012;28;20190;-73
2022/06/20 09:03:24;;;;;;;4.45;1.92;;;;;;;;;;5040049;28;20261;-72
2022/06/20 09:05:52;;;;;;;6.28;1.67;;;;;;;;;;5023611;28;20189;-73
2022/06/20 09:08:17;;;;;;;4.93;1.63;;;;;;;;;;5051184;28;20189;-73
2022/06/20 09:10:47;;;;;;;7.63;2.10;;;;;;;;;;5042012;28;20188;-73
2022/06/20 09:13:48;;;;;;;6.45;2.00;;;;;;;;;;5041089;28;20623;-72
2022/06/20 09:16:13;;;;;;;3.30;1.38;;;;;;;;;;4958739;28;20645;-73
2022/06/20 09:18:48;;;;;;;5.15;1.45;;;;;;;;;;5002176;28;20225;-72
2022/06/20 09:21:23;;;;;;;2.95;1.52;;;;;;;;;;5018712;28;20276;-72
2022/06/20 09:23:58;;;;;;;7.43;2.05;;;;;;;;;;5015883;28;20174;-73
2022/06/20 09:26:23;;;;;;;3.97;1.50;;;;;;;;;;5019545;28;20181;-72
2022/06/20 09:28:48;;;;;;;3.43;1.60;;;;;;;;;;5025257;28;20259;-73
2022/06/20 09:31:16;;;;;;;3.37;1.43;;;;;;;;;;5023325;28;20786;-73
2022/06/20 09:34:00;;;;;;;3.72;1.58;;;;;;;;;;5024518;28;20196;-72
2022/06/20 09:36:32;;;;;;;6.70;1.63;;;;;;;;;;5024032;28;20199;-72
2022/06/20 09:39:04;;;;;;;4.68;1.50;;;;;;;;;;5016791;28;20219;-74
2022/06/20 09:41:29;;;;;;;3.50;1.48;;;;;;;;;;5022938;28;20902;-74
2022/06/20 09:44:13;;;;;;;3.67;0.90;;;;;;;;;;5022220;28;20647;-75
2022/06/20 09:46:50;;;;;;;3.63;1.50;;;;;;;;;;5026593;28;23281;-73
2022/06/20 09:49:48;;;;;;;3.40;1.00;;;;;;;;;;5024219;28;20209;-73
2022/06/20 09:52:32;;;;;;;3.10;1.20;;;;;;;;;;4983598;28;20191;-75
2022/06/20 09:54:57;;;;;;;4.20;1.70;;;;;;;;;;5023138;28;20552;-73
2022/06/20 09:57:27;;;;;;;5.53;1.75;;;;;;;;;;5025515;28;20273;-74
2022/06/20 09:59:58;;;;;;;7.55;2.33;;;;;;;;;;5023726;28;20201;-76
2022/06/20 10:02:38;;;;;;;3.10;1.50;;;;;;;;;;5023906;28;20182;-75
2022/06/20 10:05:12;;;;;;;4.72;1.45;;;;;;;;;;5025632;28;20261;-75
2022/06/20 10:07:47;;;;;;;5.57;1.73;;;;;;;;;;5011817;28;20272;-74
2022/06/20 10:10:15;;;;;;;5.40;1.52;;;;;;;;;;5023153;28;20251;-74
2022/06/20 10:12:47;;;;;;;4.00;1.60;;;;;;;;;;5030629;28;20170;-74
2022/06/20 10:15:31;;;;;;;4.28;1.70;;;;;;;;;;5023289;28;20240;-74
2022/06/20 10:18:02;;;;;;;2.38;1.40;;;;;;;;;;5024810;28;20719;-73
2022/06/20 10:20:39;;;;;;;4.63;1.60;;;;;;;;;;5020768;28;20244;-73
2022/06/20 10:23:07;;;;;;;5.03;1.70;;;;;;;;;;5021294;28;20602;-74
2022/06/20 10:25:35;;;;;;;5.55;1.83;;;;;;;;;;5022156;28;20185;-74
2022/06/20 10:28:19;;;;;;;3.25;1.40;;;;;;;;;;5010450;28;20193;-74
2022/06/20 10:30:44;;;;;;;5.60;1.77;;;;;;;;;;5020586;28;20273;-75
2022/06/20 10:33:22;;;;;;;4.23;1.73;;;;;;;;;;5023067;28;20190;-74
2022/06/20 10:35:50;;;;;;;5.78;1.75;;;;;;;;;;5031572;28;20447;-74
2022/06/20 10:38:34;;;;;;;3.80;1.65;;;;;;;;;;5018586;28;20699;-74
2022/06/20 10:41:06;;;;;;;5.00;1.60;;;;;;;;;;5020539;28;20182;-74
2022/06/20 10:43:31;;;;;;;3.10;1.38;;;;;;;;;;5020752;28;20182;-74
2022/06/20 10:46:06;;;;;;;5.57;1.60;;;;;;;;;;5043926;28;20260;-74
2022/06/20 10:48:39;;;;;;;3.55;1.50;;;;;;;;;;5048442;28;20197;-75
2022/06/20 10:51:09;;;;;;;6.35;2.10;;;;;;;;;;5036444;28;20186;-74
2022/06/20 10:53:40;;;;;;;5.45;2.13;;;;;;;;;;5043214;28;20192;-76
2022/06/20 10:56:24;;;;;;;5.43;1.80;;;;;;;;;;5053199;28;20180;-74
2022/06/20 10:59:04;;;;;;;3.05;1.20;;;;;;;;;;5052733;28;20742;-75
2022/06/20 11:01:32;;;;;;;3.47;1.55;;;;;;;;;;5039502;28;20687;-74
2022/06/20 11:04:06;;;;;;;3.80;1.42;;;;;;;;;;5043969;28;20718;-74
2022/06/20 11:06:35;;;;;;;4.88;1.30;;;;;;;;;;5030914;28;20638;-74
2022/06/20 11:09:03;;;;;;;4.43;2.05;;;;;;;;;;5048204;28;20196;-74
2022/06/20 11:11:47;;;;;;;3.67;1.25;;;;;;;;;;5040861;28;20180;-74
2022/06/20 11:14:27;;;;;;;3.65;1.60;;;;;;;;;;5024537;28;20647;-74
2022/06/20 11:17:03;;;;;;;6.38;2.00;;;;;;;;;;5006844;28;20263;-73
2022/06/20 11:19:32;;;;;;;6.45;2.28;;;;;;;;;;5020265;28;20224;-74
2022/06/20 11:22:12;;;;;;;5.18;1.80;;;;;;;;;;5020123;28;20186;-75
2022/06/20 11:24:42;;;;;;;5.03;2.10;;;;;;;;;;5020007;28;20181;-74
2022/06/20 11:27:16;;;;;;;7.18;2.08;;;;;;;;;;5022594;28;20185;-74
2022/06/20 11:29:56;;;;;;;4.88;1.73;;;;;;;;;;5020099;28;20251;-75
2022/06/20 11:32:27;;;;;;;6.95;1.80;;;;;;;;;;5019318;28;20221;-74
2022/06/20 11:35:07;;;;;;;4.65;1.75;;;;;;;;;;5021122;28;20174;-74
2022/06/20 11:37:39;;;;;;;5.38;1.75;;;;;;;;;;5011374;28;21165;-75
2022/06/20 11:40:09;;;;;;;8.15;1.90;;;;;;;;;;5020824;28;20216;-74
2022/06/20 11:42:53;;;;;;;5.97;1.98;;;;;;;;;;5021261;28;20221;-74
2022/06/20 11:45:37;;;;;;;4.68;1.67;;;;;;;;;;5026565;28;20270;-74
2022/06/20 11:48:08;;;;;;;5.60;1.90;;;;;;;;;;5020148;28;20182;-73
2022/06/20 11:50:34;;;;;;;4.85;1.70;;;;;;;;;;5022652;28;20178;-74
2022/06/20 11:53:18;;;;;;;4.47;1.70;;;;;;;;;;5022893;28;20186;-73
2022/06/20 11:55:47;;;;;;;8.48;2.10;;;;;;;;;;5013278;28;20193;-74
2022/06/20 11:58:19;;;;;;;9.50;2.50;;;;;;;;;;5018819;28;20264;-74
2022/06/20 12:00:55;;;;;;;6.88;1.73;;;;;;;;;;5019555;28;20525;-74
2022/06/20 12:03:30;;;;;;;4.82;1.67;;;;;;;;;;5021551;28;20651;-74
2022/06/20 12:06:01;;;;;;;6.25;1.90;;;;;;;;;;5021739;28;20884;-74
2022/06/20 12:08:29;;;;;;;5.93;1.40;;;;;;;;;;5024805;28;20206;-74
2022/06/20 12:10:56;;;;;;;6.50;1.90;;;;;;;;;;5020484;28;20196;-77
2022/06/20 12:13:24;;;;;;;4.75;2.00;;;;;;;;;;5026088;28;22029;-74
2022/06/20 12:16:08;;;;;;;5.65;2.05;;;;;;;;;;5025295;28;20184;-72
2022/06/20 12:18:37;;;;;;;5.32;2.47;;;;;;;;;;5017826;28;20334;-73
2022/06/20 12:23:51;;;;;;;8.43;2.05;;;;;;;;;;5019957;28;20192;-74
2022/06/20 12:26:31;;;;;;;6.22;1.52;;;;;;;;;;5020461;28;20596;-73
2022/06/20 12:28:58;;;;;;;7.88;2.28;;;;;;;;;;5017341;28;20212;-73
2022/06/20 12:31:25;;;;;;;4.82;2.00;;;;;;;;;;5040387;28;20183;-73
2022/06/20 12:34:05;;;;;;;4.78;1.67;;;;;;;;;;5022505;28;20208;-73
2022/06/20 12:36:42;;;;;;;4.47;1.60;;;;;;;;;;5015591;28;20232;-73
2022/06/20 12:39:19;;;;;;;4.55;1.90;;;;;;;;;;5008346;28;20205;-73
2022/06/20 12:41:48;;;;;;;7.40;1.60;;;;;;;;;;5021118;28;20272;-73
2022/06/20 12:44:39;;;;;;;3.67;1.75;;;;;;;;;;5020899;28;20269;-73
2022/06/20 12:47:23;;;;;;;7.70;2.03;;;;;;;;;;5039763;28;20197;-73
2022/06/20 12:50:00;;;;;;;5.18;1.73;;;;;;;;;;5037191;28;20668;-73
2022/06/20 12:52:26;;;;;;;6.07;2.22;;;;;;;;;;5038058;28;20195;-73
2022/06/20 12:54:51;;;;;;;5.90;2.45;;;;;;;;;;5045283;28;20177;-73
2022/06/20 12:57:35;;;;;;;5.63;1.90;;;;;;;;;;5035450;28;20174;-73
2022/06/20 13:00:00;;;;;;;5.30;1.80;;;;;;;;;;5016414;28;20254;-73
2022/06/20 13:02:37;;;;;;;7.67;2.10;;;;;;;;;;5035492;28;20216;-74
2022/06/20 13:05:14;;;;;;;5.75;2.20;;;;;;;;;;5044740;28;20173;-73
2022/06/20 13:07:53;;;;;;;6.55;2.00;;;;;;;;;;5032026;28;20182;-73
2022/06/20 13:10:19;;;;;;;6.95;2.05;;;;;;;;;;5052981;28;20238;-73
2022/06/20 13:13:08;;;;;;;6.85;2.20;;;;;;;;;;5041098;28;20213;-73
2022/06/20 13:15:36;;;;;;;8.23;2.00;;;;;;;;;;5037197;28;20677;-73
2022/06/20 13:18:18;;;;;;;5.15;2.08;;;;;;;;;;5022185;28;20225;-74
2022/06/20 13:20:57;;;;;;;8.27;2.10;;;;;;;;;;5018593;28;20271;-73
2022/06/20 13:23:35;;;;;;;7.97;2.47;;;;;;;;;;5019033;28;20534;-73
2022/06/20 13:26:04;;;;;;;6.68;2.05;;;;;;;;;;5008728;28;20176;-73
2022/06/20 13:28:36;;;;;;;5.65;2.20;;;;;;;;;;5015109;28;20247;-73
2022/06/20 13:31:04;;;;;;;7.72;2.10;;;;;;;;;;5018074;28;20212;-73
2022/06/20 13:33:47;;;;;;;7.75;2.60;;;;;;;;;;5018292;28;20200;-72
2022/06/20 13:36:32;;;;;;;6.82;2.30;;;;;;;;;;5018508;28;20196;-72
2022/06/20 13:39:15;;;;;;;6.38;2.15;;;;;;;;;;5017663;28;20221;-72
2022/06/20 13:41:42;;;;;;;4.03;1.60;;;;;;;;;;5017714;28;20681;-72
2022/06/20 13:44:10;;;;;;;7.63;2.30;;;;;;;;;;5023305;28;20235;-72
2022/06/20 13:46:45;;;;;;;6.30;1.90;;;;;;;;;;5018159;28;20230;-73
2022/06/20 13:49:26;;;;;;;6.20;1.58;;;;;;;;;;5016469;28;20244;-72
2022/06/20 13:51:54;;;;;;;5.03;1.90;;;;;;;;;;5030975;28;20261;-72
2022/06/20 13:54:41;;;;;;;5.95;2.05;;;;;;;;;;5015655;28;20320;-72
2022/06/20 13:57:06;;;;;;;8.15;2.10;;;;;;;;;;5014750;28;20185;-73
2022/06/20 13:59:37;;;;;;;4.83;1.77;;;;;;;;;;5012402;28;20593;-73
2022/06/20 14:02:21;;;;;;;3.40;1.80;;;;;;;;;;5017958;28;20959;-73
2022/06/20 14:04:46;;;;;;;6.40;2.08;;;;;;;;;;5019729;28;20297;-73
2022/06/20 14:07:20;;;;;;;3.05;1.52;;;;;;;;;;5001951;28;20223;-73
2022/06/20 14:09:49;;;;;;;3.50;1.70;;;;;;;;;;4998214;28;20357;-73
2022/06/20 14:12:47;;;;;;;5.15;1.70;;;;;;;;;;5022759;28;20189;-73
2022/06/20 14:15:24;;;;;;;6.15;1.75;;;;;;;;;;4984887;28;20936;-73
2022/06/20 14:18:01;;;;;;;8.15;1.92;;;;;;;;;;5016438;28;20909;-73
2022/06/20 14:20:31;;;;;;;2.83;1.73;;;;;;;;;;5021817;28;20178;-72
2022/06/20 14:22:58;;;;;;;3.95;1.77;;;;;;;;;;5020448;28;20314;-74
2022/06/20 14:25:23;;;;;;;4.93;1.90;;;;;;;;;;5021120;28;20186;-72
2022/06/20 14:27:50;;;;;;;6.18;1.70;;;;;;;;;;5022097;28;20177;-72
2022/06/20 14:30:30;;;;;;;3.50;1.50;;;;;;;;;;5020537;28;20311;-72
2022/06/20 14:33:18;;;;;;;3.97;1.50;;;;;;;;;;5025187;28;20630;-72
2022/06/20 14:35:46;;;;;;;3.75;1.80;;;;;;;;;;5019433;28;20189;-72
2022/06/20 14:38:14;;;;;;;5.88;2.10;;;;;;;;;;5019560;28;20342;-72
2022/06/20 14:40:39;;;;;;;3.63;1.85;;;;;;;;;;5023385;28;20652;-72
2022/06/20 14:43:17;;;;;;;5.23;1.57;;;;;;;;;;5020118;28;20190;-72
2022/06/20 14:46:05;;;;;;;4.47;1.65;;;;;;;;;;5034106;28;20423;-72
2022/06/20 14:48:33;;;;;;;6.30;1.90;;;;;;;;;;5038559;28;20672;-72
2022/06/20 14:51:05;;;;;;;4.85;1.70;;;;;;;;;;5042122;28;20527;-72
2022/06/20 14:53:30;;;;;;;8.48;1.77;;;;;;;;;;5043425;28;20188;-72
2022/06/20 14:56:12;;;;;;;3.93;1.37;;;;;;;;;;5049776;28;20178;-72
2022/06/20 14:58:47;;;;;;;5.40;2.10;;;;;;;;;;5042835;28;20519;-72
2022/06/20 15:01:22;;;;;;;2.45;1.40;;;;;;;;;;5040940;28;20178;-72
2022/06/20 15:03:47;;;;;;;4.18;1.50;;;;;;;;;;5040199;28;20170;-73
2022/06/20 15:06:32;;;;;;;4.55;1.27;;;;;;;;;;5048438;28;20178;-72
2022/06/20 15:09:11;;;;;;;4.90;1.77;;;;;;;;;;5042861;28;20281;-73
2022/06/20 15:11:49;;;;;;;4.55;1.40;;;;;;;;;;5041850;28;20194;-73
2022/06/20 15:14:35;;;;;;;5.68;1.50;;;;;;;;;;5042190;28;20608;-73